Time;durP1;ratioP1;P1;durP2;ratioP2;P2;SDS_P1;SDS_P2;PMS_P1;PMS_P2;Temp;Humidity;BMP_temperature;BMP_pressure;BME280_temperature;BME280_humidity;BME280_pressure;Samples;Min_cycle;Max_cycle;Signal;HPM_P1;HPM_P2
2024/04/21 00:00:17;;;;;;;;;;;;;;;;;;;;;
2024/04/21 00:03:01;;;;;;;11.15;5.97;;;;;;;;;;5345589;26;20012;-56
2024/04/21 00:05:58;;;;;;;14.93;4.70;;;;;;;;;;5328843;26;20088;-57
2024/04/21 00:08:42;;;;;;;16.77;5.28;;;;;;;;;;5373442;26;20000;-55
2024/04/21 00:13:58;;;;;;;14.20;5.07;;;;;;;;;;5344687;26;20000;-55
2024/04/21 00:16:40;;;;;;;8.82;4.90;;;;;;;;;;5321243;26;20008;-55
2024/04/21 00:19:06;;;;;;;17.10;4.70;;;;;;;;;;5375669;26;20015;-56
2024/04/21 00:21:41;;;;;;;10.45;4.95;;;;;;;;;;5373561;26;20008;-56
2024/04/21 00:24:07;;;;;;;14.77;5.03;;;;;;;;;;5344960;26;20015;-56
2024/04/21 00:26:49;;;;;;;18.90;5.50;;;;;;;;;;5374013;26;20004;-57
2024/04/21 00:29:38;;;;;;;11.40;4.43;;;;;;;;;;5397259;26;20004;-55
2024/04/21 00:32:03;;;;;;;9.63;4.78;;;;;;;;;;5373978;26;20004;-55
2024/04/21 00:34:29;;;;;;;16.52;5.90;;;;;;;;;;5375611;26;20008;-56
2024/04/21 00:36:55;;;;;;;12.25;4.18;;;;;;;;;;5372530;26;20000;-56
2024/04/21 00:39:20;;;;;;;8.85;5.13;;;;;;;;;;5375232;26;20004;-55
2024/04/21 00:41:46;;;;;;;11.73;5.05;;;;;;;;;;5375302;26;20004;-58
2024/04/21 00:44:12;;;;;;;12.57;5.28;;;;;;;;;;5373244;26;20004;-57
2024/04/21 00:46:38;;;;;;;13.50;5.53;;;;;;;;;;5371698;26;20004;-57
2024/04/21 00:49:05;;;;;;;13.07;5.03;;;;;;;;;;5372856;26;20019;-57
2024/04/21 00:51:30;;;;;;;11.25;4.85;;;;;;;;;;5372807;26;20023;-55
2024/04/21 00:53:56;;;;;;;14.23;5.75;;;;;;;;;;5373626;26;20004;-56
2024/04/21 00:56:22;;;;;;;13.57;5.15;;;;;;;;;;5375604;26;20004;-56
2024/04/21 00:58:49;;;;;;;14.45;5.18;;;;;;;;;;5373460;26;20000;-56
2024/04/21 01:01:15;;;;;;;11.05;4.95;;;;;;;;;;5373524;26;20005;-54
2024/04/21 01:03:41;;;;;;;10.75;4.90;;;;;;;;;;5410247;26;20004;-54
2024/04/21 01:06:06;;;;;;;10.50;4.72;;;;;;;;;;5397294;26;20015;-58
2024/04/21 01:08:32;;;;;;;9.13;4.97;;;;;;;;;;5343411;26;20004;-55
2024/04/21 01:10:58;;;;;;;11.00;4.45;;;;;;;;;;5315309;26;20490;-57
2024/04/21 01:13:26;;;;;;;8.90;4.35;;;;;;;;;;5328216;26;1259487;-57
2024/04/21 01:15:52;;;;;;;9.32;4.43;;;;;;;;;;5372958;26;20005;-58
2024/04/21 01:18:18;;;;;;;6.57;4.22;;;;;;;;;;5374738;26;20023;-58
2024/04/21 01:20:44;;;;;;;7.60;4.47;;;;;;;;;;5379397;26;20036;-54
2024/04/21 01:23:10;;;;;;;9.02;4.28;;;;;;;;;;5410126;26;20377;-57
2024/04/21 01:25:35;;;;;;;7.28;3.65;;;;;;;;;;5410173;26;20409;-55
2024/04/21 01:28:01;;;;;;;7.40;4.22;;;;;;;;;;5400972;26;20004;-58
2024/04/21 01:30:27;;;;;;;8.77;4.07;;;;;;;;;;5410067;26;20000;-58
2024/04/21 01:32:52;;;;;;;6.32;3.58;;;;;;;;;;5408382;26;20005;-54
2024/04/21 01:35:20;;;;;;;7.30;3.92;;;;;;;;;;5409596;26;20000;-57
2024/04/21 01:37:46;;;;;;;9.85;3.85;;;;;;;;;;5397070;26;20008;-58
2024/04/21 01:40:12;;;;;;;8.95;3.75;;;;;;;;;;5372625;26;20052;-58
2024/04/21 01:42:37;;;;;;;7.03;3.83;;;;;;;;;;5371351;26;20011;-57
2024/04/21 01:45:03;;;;;;;8.02;3.70;;;;;;;;;;5315326;26;20036;-59
2024/04/21 01:47:30;;;;;;;6.93;3.72;;;;;;;;;;5375100;26;20004;-59
2024/04/21 01:49:55;;;;;;;8.65;4.00;;;;;;;;;;5374817;26;20008;-57
2024/04/21 01:52:21;;;;;;;9.02;4.03;;;;;;;;;;5372020;26;20004;-63
2024/04/21 01:54:46;;;;;;;8.23;4.60;;;;;;;;;;5314068;26;20020;-58
2024/04/21 01:57:12;;;;;;;8.43;4.05;;;;;;;;;;5373803;26;20054;-59
2024/04/21 01:59:37;;;;;;;8.10;4.03;;;;;;;;;;5374938;26;20379;-58
2024/04/21 02:02:03;;;;;;;12.35;4.53;;;;;;;;;;5374326;26;20001;-59
2024/04/21 02:04:30;;;;;;;7.10;3.90;;;;;;;;;;5373914;26;20511;-58
2024/04/21 02:06:56;;;;;;;10.60;4.20;;;;;;;;;;5342837;26;20487;-58
2024/04/21 02:09:21;;;;;;;7.07;3.72;;;;;;;;;;5374354;26;20004;-57
2024/04/21 02:11:47;;;;;;;8.52;4.28;;;;;;;;;;5373850;26;20019;-54
2024/04/21 02:14:13;;;;;;;7.90;4.10;;;;;;;;;;5371650;26;20004;-57
2024/04/21 02:16:38;;;;;;;12.10;4.05;;;;;;;;;;5372230;26;20004;-58
2024/04/21 02:19:08;;;;;;;10.88;4.13;;;;;;;;;;5317973;26;20008;-56
2024/04/21 02:21:35;;;;;;;9.18;4.30;;;;;;;;;;5390687;26;20004;-57
2024/04/21 02:24:00;;;;;;;7.97;4.03;;;;;;;;;;5374077;26;20058;-60
2024/04/21 02:26:26;;;;;;;11.52;4.32;;;;;;;;;;5372227;26;20004;-55
2024/04/21 02:28:52;;;;;;;8.13;4.13;;;;;;;;;;5373989;26;20000;-56
2024/04/21 02:31:18;;;;;;;9.05;4.10;;;;;;;;;;5373737;26;20004;-58
2024/04/21 02:33:44;;;;;;;7.07;3.80;;;;;;;;;;5342611;26;20008;-55
2024/04/21 02:36:09;;;;;;;12.73;3.83;;;;;;;;;;5373813;26;20036;-58
2024/04/21 02:38:36;;;;;;;9.70;3.92;;;;;;;;;;5373778;26;20024;-54
2024/04/21 02:41:01;;;;;;;8.57;3.58;;;;;;;;;;5374164;26;20008;-56
2024/04/21 02:43:27;;;;;;;8.98;3.63;;;;;;;;;;5342311;26;20082;-54
2024/04/21 02:45:53;;;;;;;9.60;3.92;;;;;;;;;;5373522;26;20558;-56
2024/04/21 02:48:19;;;;;;;5.70;3.33;;;;;;;;;;5372228;26;20004;-56
2024/04/21 02:50:44;;;;;;;10.82;3.88;;;;;;;;;;5343264;26;20099;-54
2024/04/21 02:53:12;;;;;;;8.50;3.72;;;;;;;;;;5373225;26;19996;-57
2024/04/21 02:55:42;;;;;;;7.32;3.42;;;;;;;;;;5371558;26;20012;-58
2024/04/21 02:58:08;;;;;;;7.97;3.92;;;;;;;;;;5371239;26;20015;-59
2024/04/21 03:00:36;;;;;;;13.65;3.95;;;;;;;;;;5373091;26;20008;-54
2024/04/21 03:03:02;;;;;;;5.75;3.63;;;;;;;;;;5373146;26;20050;-60
2024/04/21 03:05:28;;;;;;;9.25;3.70;;;;;;;;;;5370865;26;20016;-57
2024/04/21 03:07:53;;;;;;;6.18;3.17;;;;;;;;;;5371278;26;20378;-55
2024/04/21 03:10:19;;;;;;;6.50;3.50;;;;;;;;;;5361444;26;20040;-54
2024/04/21 03:12:45;;;;;;;11.27;3.47;;;;;;;;;;5371106;26;20056;-56
2024/04/21 03:15:11;;;;;;;12.48;3.38;;;;;;;;;;5372754;26;20044;-55
2024/04/21 03:17:37;;;;;;;8.93;3.30;;;;;;;;;;5372790;26;20015;-57
2024/04/21 03:20:03;;;;;;;11.05;3.28;;;;;;;;;;5375666;26;20077;-58
2024/04/21 03:22:32;;;;;;;6.85;3.50;;;;;;;;;;5403084;26;20003;-56
2024/04/21 03:24:58;;;;;;;9.27;3.40;;;;;;;;;;5377387;26;20008;-58
2024/04/21 03:27:24;;;;;;;10.00;3.67;;;;;;;;;;5408695;26;20441;-57
2024/04/21 03:29:50;;;;;;;8.98;3.53;;;;;;;;;;5406559;26;20003;-56
2024/04/21 03:32:16;;;;;;;11.77;3.53;;;;;;;;;;5353753;26;20004;-55
2024/04/21 03:34:44;;;;;;;8.32;3.17;;;;;;;;;;5371064;26;20001;-56
2024/04/21 03:37:09;;;;;;;7.20;3.15;;;;;;;;;;5372670;26;20008;-58
2024/04/21 03:39:35;;;;;;;6.40;2.97;;;;;;;;;;5371302;26;20050;-56
2024/04/21 03:42:01;;;;;;;5.78;2.90;;;;;;;;;;5371182;26;20012;-59
2024/04/21 03:44:27;;;;;;;10.45;3.47;;;;;;;;;;5372690;26;20499;-56
2024/04/21 03:46:53;;;;;;;7.13;3.30;;;;;;;;;;5372982;26;20008;-56
2024/04/21 03:49:21;;;;;;;9.35;3.20;;;;;;;;;;5370966;26;20008;-55
2024/04/21 03:51:47;;;;;;;6.72;2.70;;;;;;;;;;5372508;26;20008;-57
2024/04/21 03:54:12;;;;;;;5.60;2.78;;;;;;;;;;5372415;26;20514;-57
2024/04/21 03:56:38;;;;;;;7.43;2.70;;;;;;;;;;5371480;26;20004;-58
2024/04/21 03:59:04;;;;;;;7.00;2.22;;;;;;;;;;5370006;26;20018;-54
2024/04/21 04:01:30;;;;;;;6.53;2.63;;;;;;;;;;5372035;26;20019;-52
2024/04/21 04:03:56;;;;;;;6.60;2.40;;;;;;;;;;5370816;26;20430;-56
2024/04/21 04:06:21;;;;;;;6.03;2.40;;;;;;;;;;5344552;26;20085;-58
2024/04/21 04:08:50;;;;;;;6.38;2.30;;;;;;;;;;5373747;26;20004;-58
2024/04/21 04:11:16;;;;;;;4.93;2.78;;;;;;;;;;5375587;26;20844;-57
2024/04/21 04:13:42;;;;;;;7.53;2.58;;;;;;;;;;5376235;26;20462;-58
2024/04/21 04:16:08;;;;;;;5.35;2.58;;;;;;;;;;5345377;26;20044;-58
2024/04/21 04:18:34;;;;;;;4.82;2.30;;;;;;;;;;5375964;26;20015;-55
2024/04/21 04:20:59;;;;;;;7.45;2.50;;;;;;;;;;5383425;26;20027;-57
2024/04/21 04:23:25;;;;;;;5.85;2.47;;;;;;;;;;5393922;26;20008;-52
2024/04/21 04:25:51;;;;;;;5.93;2.90;;;;;;;;;;5373890;26;20016;-58
2024/04/21 04:28:17;;;;;;;5.40;2.28;;;;;;;;;;5374073;26;20008;-56
2024/04/21 04:30:43;;;;;;;5.68;2.40;;;;;;;;;;5375656;26;20012;-55
2024/04/21 04:33:09;;;;;;;3.08;1.95;;;;;;;;;;5373212;26;20081;-57
2024/04/21 04:35:37;;;;;;;5.28;2.78;;;;;;;;;;5375345;26;20000;-57
2024/04/21 04:38:03;;;;;;;7.28;2.70;;;;;;;;;;5344518;26;20012;-56
2024/04/21 04:40:28;;;;;;;6.68;2.33;;;;;;;;;;5344278;26;20085;-56
2024/04/21 04:42:54;;;;;;;4.50;2.10;;;;;;;;;;5375034;26;20537;-58
2024/04/21 04:45:20;;;;;;;5.40;2.55;;;;;;;;;;5373078;26;20008;-59
2024/04/21 04:47:46;;;;;;;6.28;2.80;;;;;;;;;;5375362;26;20013;-55
2024/04/21 04:50:15;;;;;;;5.07;2.25;;;;;;;;;;5373276;26;20016;-56
2024/04/21 04:52:41;;;;;;;6.90;2.30;;;;;;;;;;5374738;26;20039;-54
2024/04/21 04:55:06;;;;;;;6.72;2.30;;;;;;;;;;5374219;26;20008;-59
2024/04/21 04:57:32;;;;;;;6.35;2.45;;;;;;;;;;5372894;26;20000;-54
2024/04/21 05:00:01;;;;;;;4.53;2.58;;;;;;;;;;5343709;26;20001;-59
2024/04/21 05:02:30;;;;;;;6.18;2.20;;;;;;;;;;5344540;26;20340;-57
2024/04/21 05:04:56;;;;;;;7.32;2.70;;;;;;;;;;5372906;26;20023;-59
2024/04/21 05:07:21;;;;;;;3.85;2.20;;;;;;;;;;5344061;26;20005;-53
2024/04/21 05:09:47;;;;;;;7.32;2.15;;;;;;;;;;5373154;26;20019;-57
2024/04/21 05:12:13;;;;;;;6.03;2.35;;;;;;;;;;5375538;26;20042;-56
2024/04/21 05:14:39;;;;;;;5.72;2.13;;;;;;;;;;5375229;26;20506;-57
2024/04/21 05:17:04;;;;;;;8.23;2.40;;;;;;;;;;5374718;26;20039;-58
2024/04/21 05:19:30;;;;;;;5.35;2.45;;;;;;;;;;5375729;26;20022;-57
2024/04/21 05:21:55;;;;;;;6.28;2.35;;;;;;;;;;5387956;26;20044;-56
2024/04/21 05:24:21;;;;;;;6.28;2.10;;;;;;;;;;5372511;26;20000;-58
2024/04/21 05:26:47;;;;;;;5.40;1.98;;;;;;;;;;5374087;26;20004;-52
2024/04/21 05:29:12;;;;;;;3.22;2.30;;;;;;;;;;5374766;26;20000;-51
2024/04/21 05:31:38;;;;;;;6.72;2.08;;;;;;;;;;5372700;26;20804;-56
2024/04/21 05:34:04;;;;;;;4.15;2.17;;;;;;;;;;5372894;26;20468;-54
2024/04/21 05:36:29;;;;;;;4.03;2.75;;;;;;;;;;5375278;26;20016;-56
2024/04/21 05:38:55;;;;;;;3.75;2.22;;;;;;;;;;5374344;26;20011;-57
2024/04/21 05:41:21;;;;;;;6.22;2.20;;;;;;;;;;5374494;26;20004;-55
2024/04/21 05:43:46;;;;;;;4.25;2.30;;;;;;;;;;5374127;26;20012;-53
2024/04/21 05:46:12;;;;;;;5.75;2.50;;;;;;;;;;5374956;26;20016;-52
2024/04/21 05:48:38;;;;;;;5.55;2.40;;;;;;;;;;5374262;26;20558;-53
2024/04/21 05:51:07;;;;;;;5.75;2.30;;;;;;;;;;5372630;26;20023;-52
2024/04/21 05:53:33;;;;;;;5.45;2.03;;;;;;;;;;5374413;26;20008;-53
2024/04/21 05:55:58;;;;;;;8.15;2.83;;;;;;;;;;5372184;26;20000;-51
2024/04/21 05:58:24;;;;;;;3.15;2.30;;;;;;;;;;5374232;26;20020;-51
2024/04/21 06:00:50;;;;;;;7.25;2.50;;;;;;;;;;5374433;26;20019;-52
2024/04/21 06:03:15;;;;;;;5.32;2.20;;;;;;;;;;5372389;26;20011;-51
2024/04/21 06:05:41;;;;;;;4.65;2.00;;;;;;;;;;5372546;26;20020;-53
2024/04/21 06:08:07;;;;;;;5.97;2.80;;;;;;;;;;5373679;26;20468;-50
2024/04/21 06:10:33;;;;;;;5.82;2.30;;;;;;;;;;5374097;26;20012;-50
2024/04/21 06:12:59;;;;;;;6.22;2.22;;;;;;;;;;5374041;26;20536;-50
2024/04/21 06:15:24;;;;;;;4.50;2.30;;;;;;;;;;5372474;26;20474;-52
2024/04/21 06:17:51;;;;;;;7.97;2.33;;;;;;;;;;5374180;26;20016;-54
2024/04/21 06:20:17;;;;;;;3.90;2.00;;;;;;;;;;5371399;26;20378;-49
2024/04/21 06:22:42;;;;;;;4.32;2.05;;;;;;;;;;5368840;26;20002;-52
2024/04/21 06:25:08;;;;;;;3.05;1.63;;;;;;;;;;5407379;26;20017;-52
2024/04/21 06:27:35;;;;;;;6.03;2.22;;;;;;;;;;5369993;26;20131;-53
2024/04/21 06:30:00;;;;;;;4.43;1.80;;;;;;;;;;5372277;26;20372;-54
2024/04/21 06:32:26;;;;;;;3.50;1.90;;;;;;;;;;5372388;26;20036;-53
2024/04/21 06:34:52;;;;;;;4.15;2.10;;;;;;;;;;5373231;26;20000;-55
2024/04/21 06:37:18;;;;;;;6.57;2.00;;;;;;;;;;5371830;26;20034;-52
2024/04/21 06:39:44;;;;;;;2.85;2.05;;;;;;;;;;5342894;26;20008;-48
2024/04/21 06:42:10;;;;;;;2.78;1.60;;;;;;;;;;5373536;26;20018;-49
2024/04/21 06:44:35;;;;;;;4.38;2.05;;;;;;;;;;5371792;26;20004;-53
2024/04/21 06:47:01;;;;;;;3.60;1.67;;;;;;;;;;5373938;26;20487;-52
2024/04/21 06:49:30;;;;;;;3.30;1.88;;;;;;;;;;5372155;26;20020;-54
2024/04/21 06:51:56;;;;;;;2.50;1.63;;;;;;;;;;5378739;26;20031;-55
2024/04/21 06:54:21;;;;;;;3.33;1.70;;;;;;;;;;5408803;26;20023;-55
2024/04/21 06:56:47;;;;;;;5.47;1.95;;;;;;;;;;5386912;26;20008;-51
2024/04/21 06:59:13;;;;;;;3.42;2.00;;;;;;;;;;5373560;26;20014;-48
2024/04/21 07:01:39;;;;;;;5.70;1.90;;;;;;;;;;5373757;26;20019;-53
2024/04/21 07:04:05;;;;;;;9.10;2.00;;;;;;;;;;5373820;26;20466;-54
2024/04/21 07:06:30;;;;;;;6.38;2.15;;;;;;;;;;5373738;26;20888;-51
2024/04/21 07:08:56;;;;;;;4.13;1.70;;;;;;;;;;5373305;26;20022;-53
2024/04/21 07:11:22;;;;;;;8.50;2.20;;;;;;;;;;5371513;26;20000;-52
2024/04/21 07:13:48;;;;;;;2.40;1.65;;;;;;;;;;5373326;26;20025;-52
2024/04/21 07:16:13;;;;;;;5.63;1.85;;;;;;;;;;5373689;26;20004;-49
2024/04/21 07:18:39;;;;;;;3.10;1.80;;;;;;;;;;5371039;26;20001;-53
2024/04/21 07:21:05;;;;;;;3.95;1.73;;;;;;;;;;5388529;26;20019;-54
2024/04/21 07:23:30;;;;;;;9.27;2.20;;;;;;;;;;5373237;26;20004;-48
2024/04/21 07:25:56;;;;;;;7.13;2.20;;;;;;;;;;5373918;26;20027;-54
2024/04/21 07:28:22;;;;;;;4.75;1.90;;;;;;;;;;5372854;26;20023;-54
2024/04/21 07:30:48;;;;;;;4.78;1.73;;;;;;;;;;5373178;26;20082;-52
2024/04/21 07:33:14;;;;;;;4.80;1.70;;;;;;;;;;5341679;26;20014;-50
2024/04/21 07:35:39;;;;;;;6.40;2.20;;;;;;;;;;5373516;26;20016;-51
2024/04/21 07:38:05;;;;;;;8.07;1.88;;;;;;;;;;5375103;26;20028;-56
2024/04/21 07:40:30;;;;;;;3.80;1.50;;;;;;;;;;5391194;26;20000;-49
2024/04/21 07:42:56;;;;;;;4.72;1.85;;;;;;;;;;5398624;26;20008;-56
2024/04/21 07:45:22;;;;;;;3.28;1.70;;;;;;;;;;5402866;26;20039;-51
2024/04/21 07:47:47;;;;;;;5.97;1.58;;;;;;;;;;5411679;26;20000;-50
2024/04/21 07:50:13;;;;;;;3.15;1.83;;;;;;;;;;5405805;26;20004;-49
2024/04/21 07:52:39;;;;;;;5.00;2.20;;;;;;;;;;5371447;26;20010;-57
2024/04/21 07:55:05;;;;;;;3.20;1.80;;;;;;;;;;5379577;26;20001;-54
2024/04/21 07:57:31;;;;;;;4.88;1.85;;;;;;;;;;5407732;26;20036;-52
2024/04/21 07:59:56;;;;;;;5.32;2.13;;;;;;;;;;5395710;26;20007;-52
2024/04/21 08:02:22;;;;;;;2.80;1.60;;;;;;;;;;5345037;26;20359;-50
2024/04/21 08:04:48;;;;;;;4.13;1.45;;;;;;;;;;5375585;26;20052;-56
2024/04/21 08:07:14;;;;;;;4.60;1.65;;;;;;;;;;5395051;26;20542;-54
2024/04/21 08:09:40;;;;;;;3.15;1.60;;;;;;;;;;5397632;26;20012;-51
2024/04/21 08:12:06;;;;;;;3.28;2.03;;;;;;;;;;5375463;26;20004;-52
2024/04/21 08:14:31;;;;;;;5.07;1.70;;;;;;;;;;5354869;26;20358;-53
2024/04/21 08:16:57;;;;;;;3.25;1.90;;;;;;;;;;5409243;26;20019;-51
2024/04/21 08:19:23;;;;;;;3.55;1.58;;;;;;;;;;5410189;26;20392;-49
2024/04/21 08:21:49;;;;;;;5.03;1.80;;;;;;;;;;5409866;26;20011;-51
2024/04/21 08:24:15;;;;;;;2.22;1.50;;;;;;;;;;5352899;26;20073;-54
2024/04/21 08:26:40;;;;;;;4.13;1.40;;;;;;;;;;5397556;26;20012;-54
2024/04/21 08:29:06;;;;;;;6.03;1.63;;;;;;;;;;5391020;26;20067;-55
2024/04/21 08:31:32;;;;;;;2.92;1.70;;;;;;;;;;5376236;26;20012;-53
2024/04/21 08:33:58;;;;;;;2.50;1.40;;;;;;;;;;5366152;26;20436;-50
2024/04/21 08:36:24;;;;;;;2.88;1.60;;;;;;;;;;5401520;26;20004;-52
2024/04/21 08:38:50;;;;;;;5.03;1.70;;;;;;;;;;5389587;26;20012;-52
2024/04/21 08:41:20;;;;;;;4.35;1.90;;;;;;;;;;5388411;26;20009;-52
2024/04/21 08:43:47;;;;;;;4.45;1.50;;;;;;;;;;5375299;26;20015;-54
2024/04/21 08:46:13;;;;;;;7.13;1.65;;;;;;;;;;5375253;26;20051;-52
2024/04/21 08:48:39;;;;;;;5.47;1.45;;;;;;;;;;5348663;26;20048;-54
2024/04/21 08:51:05;;;;;;;4.72;1.67;;;;;;;;;;5343465;26;20468;-55
2024/04/21 08:53:31;;;;;;;3.72;1.70;;;;;;;;;;5375433;26;20011;-53
2024/04/21 08:55:59;;;;;;;4.35;1.95;;;;;;;;;;5374287;26;20008;-51
2024/04/21 08:58:26;;;;;;;4.18;1.80;;;;;;;;;;5373691;26;20492;-51
2024/04/21 09:00:53;;;;;;;4.30;1.75;;;;;;;;;;5423829;26;20079;-55
2024/04/21 09:03:19;;;;;;;5.43;1.80;;;;;;;;;;5373459;26;20008;-54
2024/04/21 09:05:50;;;;;;;9.27;2.35;;;;;;;;;;5386325;26;20322;-52
2024/04/21 09:08:16;;;;;;;1.98;1.52;;;;;;;;;;5408754;26;20016;-54
2024/04/21 09:10:41;;;;;;;5.65;1.90;;;;;;;;;;5408674;26;19999;-53
2024/04/21 09:13:08;;;;;;;5.07;1.67;;;;;;;;;;5410872;26;20940;-50
2024/04/21 09:15:34;;;;;;;5.38;1.60;;;;;;;;;;5409485;26;20007;-52
2024/04/21 09:18:01;;;;;;;2.88;1.70;;;;;;;;;;5411677;26;20157;-51
2024/04/21 09:20:26;;;;;;;3.50;1.70;;;;;;;;;;5393670;26;20004;-53
2024/04/21 09:22:52;;;;;;;4.45;1.90;;;;;;;;;;5376223;26;20614;-54
2024/04/21 09:25:18;;;;;;;3.05;1.50;;;;;;;;;;5373065;26;20008;-57
2024/04/21 09:27:48;;;;;;;5.25;1.80;;;;;;;;;;5343986;26;20008;-53
2024/04/21 09:30:14;;;;;;;5.32;2.10;;;;;;;;;;5402682;26;20031;-54
2024/04/21 09:32:40;;;;;;;6.78;2.10;;;;;;;;;;5388068;26;20095;-53
2024/04/21 09:35:06;;;;;;;3.45;1.80;;;;;;;;;;5374821;26;20019;-53
2024/04/21 09:37:31;;;;;;;4.70;1.90;;;;;;;;;;5396770;26;20468;-51
2024/04/21 09:39:57;;;;;;;4.85;1.65;;;;;;;;;;5381574;26;20007;-52
2024/04/21 09:42:25;;;;;;;7.57;2.08;;;;;;;;;;5362830;26;20019;-53
2024/04/21 09:44:53;;;;;;;5.38;1.67;;;;;;;;;;5376199;26;20556;-55
2024/04/21 09:47:19;;;;;;;5.95;1.88;;;;;;;;;;5386646;26;20015;-56
2024/04/21 09:49:45;;;;;;;2.67;1.65;;;;;;;;;;5372993;26;20004;-52
2024/04/21 09:52:11;;;;;;;5.55;2.08;;;;;;;;;;5365240;26;20005;-50
2024/04/21 09:54:38;;;;;;;3.35;1.90;;;;;;;;;;5391013;26;20031;-50
2024/04/21 09:57:16;;;;;;;4.03;1.60;;;;;;;;;;5374383;26;20938;-55
2024/04/21 09:59:43;;;;;;;3.90;1.67;;;;;;;;;;5362538;26;20014;-56
2024/04/21 10:02:12;;;;;;;5.18;1.60;;;;;;;;;;5313958;26;20000;-51
2024/04/21 10:04:38;;;;;;;6.00;1.60;;;;;;;;;;5395500;26;20000;-52
2024/04/21 10:07:05;;;;;;;4.60;2.17;;;;;;;;;;5405304;26;20141;-49
2024/04/21 10:09:30;;;;;;;4.57;1.85;;;;;;;;;;5372729;26;20083;-50
2024/04/21 10:11:56;;;;;;;6.30;1.70;;;;;;;;;;5383089;26;20909;-53
2024/04/21 10:14:23;;;;;;;3.35;1.50;;;;;;;;;;5396737;26;20052;-57
2024/04/21 10:16:48;;;;;;;9.52;1.80;;;;;;;;;;5373474;26;20020;-49
2024/04/21 10:19:21;;;;;;;3.15;1.50;;;;;;;;;;5376142;26;20019;-54
2024/04/21 10:21:47;;;;;;;5.53;1.60;;;;;;;;;;5403658;26;20000;-53
2024/04/21 10:24:12;;;;;;;5.05;1.63;;;;;;;;;;5406599;26;20010;-52
2024/04/21 10:26:39;;;;;;;4.75;2.60;;;;;;;;;;5370153;26;20004;-54
2024/04/21 10:29:11;;;;;;;5.53;1.50;;;;;;;;;;5371880;26;20008;-51
2024/04/21 10:31:37;;;;;;;3.67;1.40;;;;;;;;;;5400890;26;20552;-54
2024/04/21 10:34:08;;;;;;;5.07;1.45;;;;;;;;;;5408685;26;20000;-54
2024/04/21 10:36:40;;;;;;;7.05;1.30;;;;;;;;;;5407824;26;20039;-55
2024/04/21 10:39:06;;;;;;;6.82;1.65;;;;;;;;;;5400300;26;20004;-57
2024/04/21 10:41:43;;;;;;;2.95;1.70;;;;;;;;;;5392809;26;20022;-50
2024/04/21 10:44:09;;;;;;;7.78;1.60;;;;;;;;;;5405783;26;20003;-48
2024/04/21 10:46:35;;;;;;;5.85;1.55;;;;;;;;;;5376522;26;20008;-57
2024/04/21 10:49:01;;;;;;;5.53;1.60;;;;;;;;;;5385231;26;20516;-64
2024/04/21 10:51:33;;;;;;;5.32;1.40;;;;;;;;;;5366334;26;20004;-55
2024/04/21 10:53:59;;;;;;;7.43;1.45;;;;;;;;;;5396571;26;20019;-57
2024/04/21 10:56:25;;;;;;;8.55;1.60;;;;;;;;;;5403268;26;20015;-61
2024/04/21 10:58:51;;;;;;;5.15;1.75;;;;;;;;;;5401661;26;20438;-51
2024/04/21 11:01:18;;;;;;;17.63;1.98;;;;;;;;;;5386375;26;20004;-52
2024/04/21 11:03:44;;;;;;;6.18;1.60;;;;;;;;;;5370566;26;20001;-50
2024/04/21 11:06:10;;;;;;;3.00;1.75;;;;;;;;;;5372337;26;20015;-53
2024/04/21 11:08:36;;;;;;;4.88;1.90;;;;;;;;;;5374929;26;20005;-50
2024/04/21 11:11:03;;;;;;;5.93;1.60;;;;;;;;;;5341283;26;20008;-52
2024/04/21 11:13:30;;;;;;;2.75;1.65;;;;;;;;;;5387487;26;20016;-52
2024/04/21 11:15:56;;;;;;;6.95;2.10;;;;;;;;;;5407011;26;20007;-48
2024/04/21 11:18:22;;;;;;;5.10;2.28;;;;;;;;;;5397351;26;20004;-53
2024/04/21 11:20:47;;;;;;;4.57;1.92;;;;;;;;;;5387413;26;20496;-52
2024/04/21 11:23:16;;;;;;;7.85;2.15;;;;;;;;;;5370556;26;20056;-53
2024/04/21 11:25:42;;;;;;;;;;;;;;;;;;5398942;26;20016;-52
2024/04/21 11:28:11;;;;;;;7.85;1.45;;;;;;;;;;5353609;26;19925;-55
2024/04/21 11:30:37;;;;;;;2.78;1.20;;;;;;;;;;5373291;26;20005;-54
2024/04/21 11:33:03;;;;;;;6.07;1.95;;;;;;;;;;5344647;26;20004;-57
2024/04/21 11:35:29;;;;;;;4.50;1.35;;;;;;;;;;5373896;26;20349;-55
2024/04/21 11:37:55;;;;;;;4.70;1.40;;;;;;;;;;5374292;26;20016;-57
2024/04/21 11:40:20;;;;;;;2.13;1.40;;;;;;;;;;5374189;26;20008;-50
2024/04/21 11:42:47;;;;;;;2.75;1.88;;;;;;;;;;5317036;26;20029;-49
2024/04/21 11:45:23;;;;;;;4.03;2.10;;;;;;;;;;5389039;26;20612;-51
2024/04/21 11:47:53;;;;;;;4.47;2.20;;;;;;;;;;5411245;26;20442;-52
2024/04/21 11:50:20;;;;;;;4.38;1.98;;;;;;;;;;5403130;26;20004;-53
2024/04/21 11:52:45;;;;;;;5.28;1.90;;;;;;;;;;5382611;26;20015;-56
2024/04/21 11:55:11;;;;;;;7.13;1.30;;;;;;;;;;5350775;26;20847;-50
2024/04/21 11:57:37;;;;;;;6.82;1.67;;;;;;;;;;5409522;26;20055;-51
2024/04/21 12:00:03;;;;;;;6.45;1.40;;;;;;;;;;5395520;26;20015;-52
2024/04/21 12:02:31;;;;;;;3.53;1.93;;;;;;;;;;5365304;26;20023;-57
2024/04/21 12:04:58;;;;;;;8.75;2.20;;;;;;;;;;5374202;26;20492;-52
2024/04/21 12:07:24;;;;;;;6.28;1.90;;;;;;;;;;5375635;26;20004;-53
2024/04/21 12:09:49;;;;;;;5.18;1.60;;;;;;;;;;5373724;26;20004;-51
2024/04/21 12:12:18;;;;;;;5.40;1.75;;;;;;;;;;5373673;26;20004;-52
2024/04/21 12:14:43;;;;;;;4.88;1.60;;;;;;;;;;5373960;26;20027;-58
2024/04/21 12:17:14;;;;;;;3.40;1.40;;;;;;;;;;5375819;26;20004;-56
2024/04/21 12:19:40;;;;;;;4.03;1.65;;;;;;;;;;5405939;26;20417;-58
2024/04/21 12:22:06;;;;;;;5.38;1.45;;;;;;;;;;5396753;26;20004;-53
2024/04/21 12:24:32;;;;;;;8.73;2.38;;;;;;;;;;5344248;26;20004;-55
2024/04/21 12:26:57;;;;;;;4.22;1.48;;;;;;;;;;5374129;26;20019;-53
2024/04/21 12:29:24;;;;;;;5.90;1.60;;;;;;;;;;5374096;26;20004;-55
2024/04/21 12:31:50;;;;;;;3.33;1.70;;;;;;;;;;5374370;26;20004;-54
2024/04/21 12:34:16;;;;;;;3.70;1.48;;;;;;;;;;5374146;26;20009;-49
2024/04/21 12:36:41;;;;;;;5.68;1.63;;;;;;;;;;5375390;26;20006;-53
2024/04/21 12:39:07;;;;;;;10.93;2.30;;;;;;;;;;5375525;26;20900;-53
2024/04/21 12:41:33;;;;;;;8.65;2.35;;;;;;;;;;5375793;26;20016;-56
2024/04/21 12:43:59;;;;;;;10.05;1.48;;;;;;;;;;5314857;26;20008;-53
2024/04/21 12:46:25;;;;;;;5.40;1.60;;;;;;;;;;5405512;26;20011;-53
2024/04/21 12:48:50;;;;;;;4.18;1.30;;;;;;;;;;5408695;26;20014;-52
2024/04/21 12:51:16;;;;;;;5.35;1.65;;;;;;;;;;5402913;26;20004;-53
2024/04/21 12:53:43;;;;;;;2.40;1.38;;;;;;;;;;5343978;26;20103;-54
2024/04/21 12:56:09;;;;;;;6.88;1.50;;;;;;;;;;5375240;26;20073;-55
2024/04/21 12:58:35;;;;;;;10.30;2.00;;;;;;;;;;5375508;26;20008;-55
2024/04/21 13:01:04;;;;;;;8.80;1.70;;;;;;;;;;5374858;26;20008;-52
2024/04/21 13:03:29;;;;;;;5.32;2.28;;;;;;;;;;5374993;26;20827;-54
2024/04/21 13:05:55;;;;;;;10.45;1.83;;;;;;;;;;5385352;26;20018;-52
2024/04/21 13:08:20;;;;;;;6.93;1.90;;;;;;;;;;5410067;26;20038;-55
2024/04/21 13:10:46;;;;;;;3.08;2.20;;;;;;;;;;5408284;26;20014;-50
2024/04/21 13:13:12;;;;;;;7.20;2.25;;;;;;;;;;5400027;26;20059;-55
2024/04/21 13:15:38;;;;;;;6.82;1.45;;;;;;;;;;5410425;26;20018;-51
2024/04/21 13:18:04;;;;;;;3.78;1.30;;;;;;;;;;5389749;26;20011;-51
2024/04/21 13:20:30;;;;;;;6.22;1.85;;;;;;;;;;5390787;26;20007;-54
2024/04/21 13:22:58;;;;;;;6.32;1.70;;;;;;;;;;5391451;26;20019;-53
2024/04/21 13:25:27;;;;;;;6.55;1.60;;;;;;;;;;5343626;26;20364;-52
2024/04/21 13:27:53;;;;;;;9.25;1.42;;;;;;;;;;5374588;26;20015;-50
2024/04/21 13:30:18;;;;;;;9.43;1.40;;;;;;;;;;5374393;26;20008;-52
2024/04/21 13:32:44;;;;;;;4.45;1.20;;;;;;;;;;5383078;26;20019;-50
2024/04/21 13:35:10;;;;;;;3.90;1.20;;;;;;;;;;5372291;26;20019;-57
2024/04/21 13:37:38;;;;;;;5.03;1.50;;;;;;;;;;5372080;26;20008;-54
2024/04/21 13:40:05;;;;;;;4.05;1.17;;;;;;;;;;5343052;26;20363;-51
2024/04/21 13:42:31;;;;;;;5.68;1.40;;;;;;;;;;5314812;26;20019;-52
2024/04/21 13:44:57;;;;;;;4.63;1.25;;;;;;;;;;5383536;26;20027;-50
2024/04/21 13:47:23;;;;;;;5.95;1.42;;;;;;;;;;5409892;26;20047;-51
2024/04/21 13:49:48;;;;;;;10.93;1.30;;;;;;;;;;5408450;26;20000;-54
2024/04/21 13:52:14;;;;;;;4.57;1.20;;;;;;;;;;5410264;26;20013;-55
2024/04/21 13:54:41;;;;;;;2.83;1.20;;;;;;;;;;5383207;26;20015;-54
2024/04/21 13:57:07;;;;;;;5.75;1.50;;;;;;;;;;5374268;26;20069;-51
2024/04/21 13:59:33;;;;;;;4.78;1.60;;;;;;;;;;5372173;26;20004;-54
2024/04/21 14:01:59;;;;;;;5.47;1.33;;;;;;;;;;5343390;26;20011;-51
2024/04/21 14:04:25;;;;;;;6.93;1.38;;;;;;;;;;5373541;26;20004;-51
2024/04/21 14:06:51;;;;;;;1.40;1.00;;;;;;;;;;5372558;26;20090;-53
2024/04/21 14:09:17;;;;;;;2.85;1.10;;;;;;;;;;5373943;26;20012;-51
2024/04/21 14:11:42;;;;;;;2.78;1.13;;;;;;;;;;5396982;26;20073;-49
2024/04/21 14:14:08;;;;;;;2.45;1.10;;;;;;;;;;5377688;26;20019;-50
2024/04/21 14:16:34;;;;;;;3.08;1.45;;;;;;;;;;5378196;26;20007;-50
2024/04/21 14:19:00;;;;;;;7.82;2.10;;;;;;;;;;5409176;26;20028;-50
2024/04/21 14:21:26;;;;;;;5.03;1.13;;;;;;;;;;5401411;26;20036;-53
2024/04/21 14:23:51;;;;;;;7.35;1.20;;;;;;;;;;5409358;26;19999;-55
2024/04/21 14:26:17;;;;;;;3.47;1.40;;;;;;;;;;5409130;26;20035;-51
2024/04/21 14:28:43;;;;;;;6.30;1.40;;;;;;;;;;5377189;26;20467;-51
2024/04/21 14:31:09;;;;;;;6.85;1.40;;;;;;;;;;5398962;26;20010;-52
2024/04/21 14:33:35;;;;;;;4.22;1.30;;;;;;;;;;5371495;26;20023;-49
2024/04/21 14:36:01;;;;;;;3.78;1.20;;;;;;;;;;5342650;26;20000;-53
2024/04/21 14:38:26;;;;;;;5.85;1.15;;;;;;;;;;5373345;26;20011;-55
2024/04/21 14:40:52;;;;;;;3.15;1.00;;;;;;;;;;5371830;26;20482;-52